sensor_id;sensor_type;location;lat;lon;timestamp;pressure;altitude;pressure_sealevel;temperature;humidity
14273;BME280;7220;49.450;11.052;2023-02-18T00:00:32;98847.06;;;11.30;100.00
14273;BME280;7220;49.450;11.052;2023-02-18T00:04:32;98845.25;;;11.31;100.00
14273;BME280;7220;49.450;11.052;2023-02-18T00:08:33;98834.78;;;11.47;100.00
14273;BME280;7220;49.450;11.052;2023-02-18T00:12:33;98844.19;;;11.35;100.00
14273;BME280;7220;49.450;11.052;2023-02-18T00:16:33;98865.41;;;11.36;100.00
14273;BME280;7220;49.450;11.052;2023-02-18T00:20:34;98835.53;;;11.30;100.00
14273;BME280;7220;49.450;11.052;2023-02-18T00:24:35;98836.13;;;11.36;100.00
14273;BME280;7220;49.450;11.052;2023-02-18T00:28:35;98827.56;;;11.30;100.00
14273;BME280;7220;49.450;11.052;2023-02-18T00:32:36;98829.03;;;11.37;100.00
14273;BME280;7220;49.450;11.052;2023-02-18T00:36:36;98833.75;;;11.49;100.00
14273;BME280;7220;49.450;11.052;2023-02-18T00:40:37;98852.59;;;11.45;100.00
14273;BME280;7220;49.450;11.052;2023-02-18T00:44:38;98826.91;;;11.44;100.00
14273;BME280;7220;49.450;11.052;2023-02-18T00:48:38;98869.88;;;11.55;100.00
14273;BME280;7220;49.450;11.052;2023-02-18T00:52:39;98827.28;;;11.55;100.00
14273;BME280;7220;49.450;11.052;2023-02-18T00:56:39;98832.63;;;11.36;100.00
14273;BME280;7220;49.450;11.052;2023-02-18T01:00:40;98829.44;;;11.47;100.00
14273;BME280;7220;49.450;11.052;2023-02-18T01:04:40;98845.56;;;11.44;100.00
14273;BME280;7220;49.450;11.052;2023-02-18T01:08:41;98836.22;;;11.35;100.00
14273;BME280;7220;49.450;11.052;2023-02-18T01:12:41;98829.56;;;11.05;100.00
14273;BME280;7220;49.450;11.052;2023-02-18T01:16:41;98842.16;;;11.21;100.00
14273;BME280;7220;49.450;11.052;2023-02-18T01:20:43;98846.53;;;11.03;100.00
14273;BME280;7220;49.450;11.052;2023-02-18T01:24:43;98836.94;;;10.99;100.00
14273;BME280;7220;49.450;11.052;2023-02-18T01:28:43;98833.78;;;10.91;100.00
14273;BME280;7220;49.450;11.052;2023-02-18T01:32:44;98840.47;;;10.80;100.00
14273;BME280;7220;49.450;11.052;2023-02-18T01:36:44;98853.63;;;10.63;100.00
14273;BME280;7220;49.450;11.052;2023-02-18T01:40:48;98844.00;;;10.60;100.00
14273;BME280;7220;49.450;11.052;2023-02-18T01:44:50;98836.28;;;10.75;100.00
14273;BME280;7220;49.450;11.052;2023-02-18T01:48:56;98833.25;;;10.82;100.00
14273;BME280;7220;49.450;11.052;2023-02-18T01:52:58;98833.00;;;10.88;100.00
14273;BME280;7220;49.450;11.052;2023-02-18T01:57:04;98826.66;;;10.72;100.00
14273;BME280;7220;49.450;11.052;2023-02-18T02:01:05;98834.41;;;10.77;100.00
14273;BME280;7220;49.450;11.052;2023-02-18T02:05:07;98824.91;;;10.71;100.00
14273;BME280;7220;49.450;11.052;2023-02-18T02:09:10;98823.19;;;10.70;100.00
14273;BME280;7220;49.450;11.052;2023-02-18T02:22:16;98799.06;;;10.75;100.00
14273;BME280;7220;49.450;11.052;2023-02-18T02:31:59;98801.84;;;10.71;100.00
14273;BME280;7220;49.450;11.052;2023-02-18T02:35:51;98792.94;;;10.72;100.00
14273;BME280;7220;49.450;11.052;2023-02-18T02:40:11;98782.88;;;10.60;100.00
14273;BME280;7220;49.450;11.052;2023-02-18T02:44:43;98789.97;;;10.60;100.00
14273;BME280;7220;49.450;11.052;2023-02-18T02:48:53;98785.75;;;10.54;100.00
14273;BME280;7220;49.450;11.052;2023-02-18T02:53:01;98772.31;;;10.78;100.00
14273;BME280;7220;49.450;11.052;2023-02-18T03:01:19;98771.66;;;11.12;100.00
14273;BME280;7220;49.450;11.052;2023-02-18T03:23:15;98769.31;;;10.85;100.00
14273;BME280;7220;49.450;11.052;2023-02-18T03:27:22;98765.03;;;11.02;100.00
14273;BME280;7220;49.450;11.052;2023-02-18T03:31:25;98773.94;;;11.20;100.00
14273;BME280;7220;49.450;11.052;2023-02-18T03:35:27;98774.31;;;11.12;100.00
14273;BME280;7220;49.450;11.052;2023-02-18T03:39:29;98774.09;;;11.17;100.00
14273;BME280;7220;49.450;11.052;2023-02-18T03:43:32;98770.63;;;11.15;100.00
14273;BME280;7220;49.450;11.052;2023-02-18T03:47:33;98777.31;;;11.24;100.00
14273;BME280;7220;49.450;11.052;2023-02-18T03:51:33;98788.66;;;11.27;100.00
14273;BME280;7220;49.450;11.052;2023-02-18T03:55:33;98774.66;;;11.24;100.00
14273;BME280;7220;49.450;11.052;2023-02-18T03:59:34;98777.38;;;11.03;100.00
14273;BME280;7220;49.450;11.052;2023-02-18T04:03:34;98781.97;;;10.99;100.00
14273;BME280;7220;49.450;11.052;2023-02-18T04:07:35;98780.06;;;10.82;100.00
14273;BME280;7220;49.450;11.052;2023-02-18T04:11:39;98779.56;;;10.74;100.00
14273;BME280;7220;49.450;11.052;2023-02-18T04:15:39;98777.56;;;10.79;100.00
14273;BME280;7220;49.450;11.052;2023-02-18T04:19:40;98780.06;;;10.82;100.00
14273;BME280;7220;49.450;11.052;2023-02-18T04:23:40;98788.34;;;10.76;100.00
14273;BME280;7220;49.450;11.052;2023-02-18T04:27:40;98782.38;;;10.71;100.00
14273;BME280;7220;49.450;11.052;2023-02-18T04:31:41;98790.59;;;10.85;100.00
14273;BME280;7220;49.450;11.052;2023-02-18T04:35:41;98788.81;;;11.05;100.00
14273;BME280;7220;49.450;11.052;2023-02-18T04:39:41;98785.00;;;11.11;100.00
14273;BME280;7220;49.450;11.052;2023-02-18T04:43:42;98773.94;;;11.20;100.00
14273;BME280;7220;49.450;11.052;2023-02-18T04:47:42;98766.94;;;11.36;100.00
14273;BME280;7220;49.450;11.052;2023-02-18T04:51:43;98779.09;;;11.42;100.00
14273;BME280;7220;49.450;11.052;2023-02-18T04:55:48;98777.66;;;11.35;100.00
14273;BME280;7220;49.450;11.052;2023-02-18T04:59:49;98782.25;;;11.50;100.00
14273;BME280;7220;49.450;11.052;2023-02-18T05:03:49;98774.94;;;11.36;100.00
14273;BME280;7220;49.450;11.052;2023-02-18T05:07:49;98776.75;;;11.36;100.00
14273;BME280;7220;49.450;11.052;2023-02-18T05:11:50;98790.91;;;11.17;100.00
14273;BME280;7220;49.450;11.052;2023-02-18T05:15:51;98777.31;;;11.04;100.00
14273;BME280;7220;49.450;11.052;2023-02-18T05:19:51;98780.13;;;11.20;100.00
14273;BME280;7220;49.450;11.052;2023-02-18T05:23:52;98769.50;;;11.20;100.00
14273;BME280;7220;49.450;11.052;2023-02-18T05:27:52;98774.00;;;11.18;100.00
14273;BME280;7220;49.450;11.052;2023-02-18T05:31:52;98765.59;;;10.89;100.00
14273;BME280;7220;49.450;11.052;2023-02-18T05:35:53;98771.16;;;10.83;100.00
14273;BME280;7220;49.450;11.052;2023-02-18T05:39:53;98770.91;;;10.89;100.00
14273;BME280;7220;49.450;11.052;2023-02-18T05:43:53;98760.69;;;10.80;100.00
14273;BME280;7220;49.450;11.052;2023-02-18T05:48:12;98757.97;;;10.82;100.00
14273;BME280;7220;49.450;11.052;2023-02-18T05:52:12;98754.78;;;10.73;100.00
14273;BME280;7220;49.450;11.052;2023-02-18T05:56:13;98763.59;;;10.95;100.00
14273;BME280;7220;49.450;11.052;2023-02-18T06:00:13;98756.09;;;11.03;100.00
14273;BME280;7220;49.450;11.052;2023-02-18T06:04:15;98756.19;;;11.01;100.00
14273;BME280;7220;49.450;11.052;2023-02-18T06:08:16;98766.66;;;10.85;100.00
14273;BME280;7220;49.450;11.052;2023-02-18T06:12:16;98760.56;;;11.02;100.00
14273;BME280;7220;49.450;11.052;2023-02-18T06:16:16;98764.22;;;11.00;100.00
14273;BME280;7220;49.450;11.052;2023-02-18T06:20:17;98769.84;;;11.13;100.00
14273;BME280;7220;49.450;11.052;2023-02-18T06:24:17;98761.84;;;11.13;100.00
14273;BME280;7220;49.450;11.052;2023-02-18T06:28:17;98763.66;;;10.93;100.00
14273;BME280;7220;49.450;11.052;2023-02-18T06:32:18;98751.63;;;11.23;100.00
14273;BME280;7220;49.450;11.052;2023-02-18T06:36:18;98740.25;;;11.38;100.00
14273;BME280;7220;49.450;11.052;2023-02-18T06:40:18;98745.03;;;11.31;100.00
14273;BME280;7220;49.450;11.052;2023-02-18T06:44:19;98730.41;;;11.40;100.00
14273;BME280;7220;49.450;11.052;2023-02-18T06:48:19;98736.44;;;11.44;100.00
14273;BME280;7220;49.450;11.052;2023-02-18T06:52:20;98744.50;;;11.42;100.00
14273;BME280;7220;49.450;11.052;2023-02-18T06:56:20;98728.25;;;11.29;100.00
14273;BME280;7220;49.450;11.052;2023-02-18T07:00:20;98733.06;;;11.40;100.00
14273;BME280;7220;49.450;11.052;2023-02-18T07:04:21;98732.97;;;11.42;100.00
14273;BME280;7220;49.450;11.052;2023-02-18T07:08:22;98724.63;;;11.49;100.00
14273;BME280;7220;49.450;11.052;2023-02-18T07:12:22;98719.34;;;11.30;100.00
14273;BME280;7220;49.450;11.052;2023-02-18T07:16:22;98728.03;;;11.34;100.00
14273;BME280;7220;49.450;11.052;2023-02-18T07:20:23;98707.59;;;11.54;100.00
14273;BME280;7220;49.450;11.052;2023-02-18T07:24:24;98704.19;;;11.32;100.00
14273;BME280;7220;49.450;11.052;2023-02-18T07:28:24;98708.31;;;11.38;100.00
14273;BME280;7220;49.450;11.052;2023-02-18T07:32:25;98716.44;;;11.54;100.00
14273;BME280;7220;49.450;11.052;2023-02-18T07:36:25;98714.63;;;11.55;100.00
14273;BME280;7220;49.450;11.052;2023-02-18T07:40:25;98716.47;;;11.72;100.00
14273;BME280;7220;49.450;11.052;2023-02-18T07:44:26;98724.28;;;11.38;100.00
14273;BME280;7220;49.450;11.052;2023-02-18T07:48:26;98712.44;;;11.45;100.00
14273;BME280;7220;49.450;11.052;2023-02-18T07:52:27;98721.53;;;11.59;100.00
14273;BME280;7220;49.450;11.052;2023-02-18T07:56:27;98714.47;;;11.58;100.00
14273;BME280;7220;49.450;11.052;2023-02-18T08:00:27;98720.28;;;11.66;100.00
14273;BME280;7220;49.450;11.052;2023-02-18T08:04:28;98722.81;;;11.69;100.00
14273;BME280;7220;49.450;11.052;2023-02-18T08:08:30;98713.13;;;11.66;100.00
14273;BME280;7220;49.450;11.052;2023-02-18T08:12:30;98708.06;;;11.79;100.00
14273;BME280;7220;49.450;11.052;2023-02-18T08:16:30;98695.31;;;11.86;100.00
14273;BME280;7220;49.450;11.052;2023-02-18T08:20:35;98701.38;;;12.07;100.00
14273;BME280;7220;49.450;11.052;2023-02-18T08:24:36;98714.09;;;11.83;100.00
14273;BME280;7220;49.450;11.052;2023-02-18T08:28:36;98683.00;;;11.83;100.00
14273;BME280;7220;49.450;11.052;2023-02-18T08:32:36;98691.09;;;11.99;98.99
14273;BME280;7220;49.450;11.052;2023-02-18T08:36:37;98686.53;;;11.84;99.70
14273;BME280;7220;49.450;11.052;2023-02-18T08:40:37;98672.03;;;11.90;99.28
14273;BME280;7220;49.450;11.052;2023-02-18T08:44:38;98683.34;;;12.12;97.99
14273;BME280;7220;49.450;11.052;2023-02-18T08:48:38;98677.19;;;12.28;97.05
14273;BME280;7220;49.450;11.052;2023-02-18T08:52:38;98667.66;;;12.24;97.44
14273;BME280;7220;49.450;11.052;2023-02-18T08:56:39;98668.94;;;12.17;97.31
14273;BME280;7220;49.450;11.052;2023-02-18T09:00:41;98661.53;;;12.22;97.99
14273;BME280;7220;49.450;11.052;2023-02-18T09:04:42;98649.75;;;12.26;96.87
14273;BME280;7220;49.450;11.052;2023-02-18T09:08:42;98636.94;;;12.17;97.70
14273;BME280;7220;49.450;11.052;2023-02-18T09:12:43;98620.19;;;12.14;97.00
14273;BME280;7220;49.450;11.052;2023-02-18T09:16:43;98621.69;;;12.36;95.20
14273;BME280;7220;49.450;11.052;2023-02-18T09:20:43;98611.34;;;12.30;95.51
14273;BME280;7220;49.450;11.052;2023-02-18T09:24:44;98595.03;;;12.36;96.03
14273;BME280;7220;49.450;11.052;2023-02-18T09:28:44;98599.84;;;12.45;95.22
14273;BME280;7220;49.450;11.052;2023-02-18T09:32:44;98594.88;;;12.39;95.44
14273;BME280;7220;49.450;11.052;2023-02-18T09:36:45;98604.19;;;12.64;94.20
14273;BME280;7220;49.450;11.052;2023-02-18T09:40:48;98605.47;;;12.57;93.33
14273;BME280;7220;49.450;11.052;2023-02-18T09:44:54;98611.25;;;12.65;93.67
14273;BME280;7220;49.450;11.052;2023-02-18T09:48:55;98611.56;;;12.59;93.14
14273;BME280;7220;49.450;11.052;2023-02-18T09:53:01;98613.31;;;12.76;91.41
14273;BME280;7220;49.450;11.052;2023-02-18T09:57:02;98616.38;;;12.68;91.24
14273;BME280;7220;49.450;11.052;2023-02-18T10:05:19;98601.56;;;12.62;90.31
14273;BME280;7220;49.450;11.052;2023-02-18T10:13:32;98588.00;;;12.83;89.74
14273;BME280;7220;49.450;11.052;2023-02-18T10:17:33;98604.50;;;12.90;88.67
14273;BME280;7220;49.450;11.052;2023-02-18T10:21:35;98592.38;;;13.00;87.30
14273;BME280;7220;49.450;11.052;2023-02-18T10:25:38;98588.66;;;13.03;86.97
14273;BME280;7220;49.450;11.052;2023-02-18T10:29:42;98586.47;;;12.63;87.93
14273;BME280;7220;49.450;11.052;2023-02-18T10:33:58;98575.94;;;12.92;86.88
14273;BME280;7220;49.450;11.052;2023-02-18T10:50:31;98587.47;;;12.92;85.05
14273;BME280;7220;49.450;11.052;2023-02-18T10:54:49;98581.28;;;12.92;85.10
14273;BME280;7220;49.450;11.052;2023-02-18T10:58:50;98590.06;;;12.94;85.24
14273;BME280;7220;49.450;11.052;2023-02-18T11:03:21;98570.44;;;12.95;84.04
14273;BME280;7220;49.450;11.052;2023-02-18T11:07:25;98584.88;;;13.07;81.04
14273;BME280;7220;49.450;11.052;2023-02-18T11:11:31;98622.50;;;13.02;80.63
14273;BME280;7220;49.450;11.052;2023-02-18T11:15:33;98559.81;;;13.09;80.43
14273;BME280;7220;49.450;11.052;2023-02-18T11:19:38;98565.19;;;13.24;79.71
14273;BME280;7220;49.450;11.052;2023-02-18T11:23:47;98560.19;;;13.03;78.81
14273;BME280;7220;49.450;11.052;2023-02-18T11:27:57;98553.53;;;13.10;78.95
14273;BME280;7220;49.450;11.052;2023-02-18T11:31:59;98547.72;;;13.18;78.50
14273;BME280;7220;49.450;11.052;2023-02-18T11:36:20;98540.34;;;13.23;78.72
14273;BME280;7220;49.450;11.052;2023-02-18T11:40:26;98535.81;;;13.09;79.23
14273;BME280;7220;49.450;11.052;2023-02-18T11:48:29;98522.50;;;13.24;77.94
14273;BME280;7220;49.450;11.052;2023-02-18T11:52:39;98517.38;;;13.21;77.28
14273;BME280;7220;49.450;11.052;2023-02-18T11:56:39;98512.56;;;13.12;77.16
14273;BME280;7220;49.450;11.052;2023-02-18T12:00:42;98522.56;;;13.08;77.11
14273;BME280;7220;49.450;11.052;2023-02-18T12:05:25;98486.28;;;13.20;76.90
14273;BME280;7220;49.450;11.052;2023-02-18T12:09:29;98517.81;;;13.44;75.43
14273;BME280;7220;49.450;11.052;2023-02-18T12:13:35;98516.72;;;13.32;74.28
14273;BME280;7220;49.450;11.052;2023-02-18T12:17:55;98512.59;;;13.26;73.68
14273;BME280;7220;49.450;11.052;2023-02-18T12:22:09;98496.09;;;13.19;74.23
14273;BME280;7220;49.450;11.052;2023-02-18T12:26:27;98501.81;;;13.28;73.33
14273;BME280;7220;49.450;11.052;2023-02-18T12:35:27;98494.22;;;13.36;71.11
14273;BME280;7220;49.450;11.052;2023-02-18T12:39:40;98506.31;;;13.27;71.29
14273;BME280;7220;49.450;11.052;2023-02-18T12:57:21;98480.28;;;13.31;70.34
14273;BME280;7220;49.450;11.052;2023-02-18T13:01:37;98458.53;;;13.53;69.69
14273;BME280;7220;49.450;11.052;2023-02-18T13:10:27;98459.19;;;13.56;69.71
14273;BME280;7220;49.450;11.052;2023-02-18T13:14:33;98445.50;;;13.32;71.36
14273;BME280;7220;49.450;11.052;2023-02-18T13:18:58;98437.31;;;13.35;71.07
14273;BME280;7220;49.450;11.052;2023-02-18T13:23:00;98433.47;;;13.25;70.42
14273;BME280;7220;49.450;11.052;2023-02-18T13:27:16;98455.03;;;13.22;70.64
14273;BME280;7220;49.450;11.052;2023-02-18T13:31:39;98446.44;;;13.17;70.80
14273;BME280;7220;49.450;11.052;2023-02-18T13:40:03;98432.84;;;12.91;70.97
14273;BME280;7220;49.450;11.052;2023-02-18T13:48:27;98421.50;;;12.87;71.37
14273;BME280;7220;49.450;11.052;2023-02-18T13:52:28;98445.84;;;12.97;70.75
14273;BME280;7220;49.450;11.052;2023-02-18T13:56:32;98431.47;;;13.14;70.80
14273;BME280;7220;49.450;11.052;2023-02-18T14:00:39;98435.75;;;13.17;70.88
14273;BME280;7220;49.450;11.052;2023-02-18T14:08:41;98444.50;;;13.04;70.75
14273;BME280;7220;49.450;11.052;2023-02-18T14:13:01;98460.09;;;12.82;71.55
14273;BME280;7220;49.450;11.052;2023-02-18T14:21:20;98424.84;;;12.91;71.30
14273;BME280;7220;49.450;11.052;2023-02-18T14:25:33;98440.38;;;12.84;71.60
14273;BME280;7220;49.450;11.052;2023-02-18T14:29:34;98435.88;;;12.85;71.28
14273;BME280;7220;49.450;11.052;2023-02-18T14:33:35;98445.69;;;12.84;71.22
14273;BME280;7220;49.450;11.052;2023-02-18T14:37:54;98451.25;;;12.65;70.95
14273;BME280;7220;49.450;11.052;2023-02-18T14:46:17;98426.66;;;12.60;70.69
14273;BME280;7220;49.450;11.052;2023-02-18T14:50:21;98429.25;;;12.61;70.56
14273;BME280;7220;49.450;11.052;2023-02-18T14:54:23;98436.22;;;12.48;71.59
14273;BME280;7220;49.450;11.052;2023-02-18T15:02:58;98459.44;;;12.46;77.79
14273;BME280;7220;49.450;11.052;2023-02-18T15:07:02;98462.28;;;12.27;79.17
14273;BME280;7220;49.450;11.052;2023-02-18T15:11:05;98445.41;;;11.94;86.73
14273;BME280;7220;49.450;11.052;2023-02-18T15:15:06;98455.63;;;11.86;89.16
14273;BME280;7220;49.450;11.052;2023-02-18T15:19:12;98468.59;;;11.76;91.70
14273;BME280;7220;49.450;11.052;2023-02-18T15:23:15;98462.66;;;11.71;91.74
14273;BME280;7220;49.450;11.052;2023-02-18T15:31:27;98469.69;;;11.72;91.50
14273;BME280;7220;49.450;11.052;2023-02-18T15:35:30;98476.41;;;11.79;90.91
14273;BME280;7220;49.450;11.052;2023-02-18T15:39:32;98479.56;;;11.70;90.31
14273;BME280;7220;49.450;11.052;2023-02-18T15:43:33;98486.09;;;11.64;92.97
14273;BME280;7220;49.450;11.052;2023-02-18T15:47:41;98485.06;;;11.67;93.25
14273;BME280;7220;49.450;11.052;2023-02-18T15:51:42;98511.94;;;11.62;93.82
14273;BME280;7220;49.450;11.052;2023-02-18T15:55:46;98490.28;;;11.52;96.61
14273;BME280;7220;49.450;11.052;2023-02-18T15:59:58;98485.91;;;11.34;98.73
14273;BME280;7220;49.450;11.052;2023-02-18T16:04:05;98475.66;;;11.26;97.52
14273;BME280;7220;49.450;11.052;2023-02-18T16:08:15;98486.00;;;11.32;97.13
14273;BME280;7220;49.450;11.052;2023-02-18T16:12:30;98503.88;;;11.46;95.51
14273;BME280;7220;49.450;11.052;2023-02-18T16:16:33;98492.31;;;11.30;97.89
14273;BME280;7220;49.450;11.052;2023-02-18T16:20:37;98492.59;;;11.25;100.00
14273;BME280;7220;49.450;11.052;2023-02-18T16:24:39;98492.72;;;11.22;100.00
14273;BME280;7220;49.450;11.052;2023-02-18T16:28:41;98507.06;;;11.19;100.00
14273;BME280;7220;49.450;11.052;2023-02-18T16:32:43;98511.13;;;11.09;100.00
14273;BME280;7220;49.450;11.052;2023-02-18T16:36:43;98505.78;;;10.92;100.00
14273;BME280;7220;49.450;11.052;2023-02-18T16:41:02;98513.75;;;10.92;100.00
14273;BME280;7220;49.450;11.052;2023-02-18T16:45:03;98517.63;;;10.67;100.00
14273;BME280;7220;49.450;11.052;2023-02-18T16:49:05;98517.38;;;10.54;100.00
14273;BME280;7220;49.450;11.052;2023-02-18T16:53:05;98509.78;;;10.46;100.00
14273;BME280;7220;49.450;11.052;2023-02-18T16:57:06;98510.41;;;10.51;100.00
14273;BME280;7220;49.450;11.052;2023-02-18T17:01:14;98517.88;;;10.43;100.00
14273;BME280;7220;49.450;11.052;2023-02-18T17:05:19;98527.81;;;10.39;100.00
14273;BME280;7220;49.450;11.052;2023-02-18T17:09:22;98523.06;;;10.46;100.00
14273;BME280;7220;49.450;11.052;2023-02-18T17:13:26;98531.63;;;10.53;100.00
14273;BME280;7220;49.450;11.052;2023-02-18T17:17:26;98535.13;;;10.53;100.00
14273;BME280;7220;49.450;11.052;2023-02-18T17:21:27;98542.03;;;10.57;100.00
14273;BME280;7220;49.450;11.052;2023-02-18T17:25:37;98552.91;;;10.70;100.00
14273;BME280;7220;49.450;11.052;2023-02-18T17:29:37;98539.59;;;10.89;100.00
14273;BME280;7220;49.450;11.052;2023-02-18T17:33:38;98549.13;;;10.94;100.00
14273;BME280;7220;49.450;11.052;2023-02-18T17:37:38;98555.75;;;11.02;100.00
14273;BME280;7220;49.450;11.052;2023-02-18T17:41:39;98554.97;;;10.83;100.00
14273;BME280;7220;49.450;11.052;2023-02-18T17:45:43;98556.31;;;10.92;100.00
14273;BME280;7220;49.450;11.052;2023-02-18T17:49:44;98576.03;;;10.87;100.00
14273;BME280;7220;49.450;11.052;2023-02-18T17:53:44;98563.97;;;10.80;100.00
14273;BME280;7220;49.450;11.052;2023-02-18T17:57:45;98578.91;;;10.83;100.00
14273;BME280;7220;49.450;11.052;2023-02-18T18:01:46;98581.78;;;10.78;100.00
14273;BME280;7220;49.450;11.052;2023-02-18T18:05:48;98579.47;;;10.89;100.00
14273;BME280;7220;49.450;11.052;2023-02-18T18:09:50;98570.44;;;10.75;100.00
14273;BME280;7220;49.450;11.052;2023-02-18T18:13:51;98586.81;;;10.65;100.00
14273;BME280;7220;49.450;11.052;2023-02-18T18:17:57;98565.34;;;10.70;100.00
14273;BME280;7220;49.450;11.052;2023-02-18T18:21:57;98567.50;;;10.62;100.00
14273;BME280;7220;49.450;11.052;2023-02-18T18:25:58;98566.13;;;10.72;100.00
14273;BME280;7220;49.450;11.052;2023-02-18T18:29:59;98569.84;;;10.68;100.00
14273;BME280;7220;49.450;11.052;2023-02-18T18:34:00;98583.38;;;10.63;100.00
14273;BME280;7220;49.450;11.052;2023-02-18T18:38:01;98584.56;;;10.75;100.00
14273;BME280;7220;49.450;11.052;2023-02-18T18:42:01;98588.03;;;10.77;100.00
14273;BME280;7220;49.450;11.052;2023-02-18T18:46:02;98602.69;;;10.67;100.00
14273;BME280;7220;49.450;11.052;2023-02-18T18:50:02;98582.09;;;10.72;100.00
14273;BME280;7220;49.450;11.052;2023-02-18T18:54:03;98586.09;;;10.62;100.00
14273;BME280;7220;49.450;11.052;2023-02-18T18:58:03;98591.13;;;10.68;100.00
14273;BME280;7220;49.450;11.052;2023-02-18T19:02:04;98596.00;;;10.77;99.86
14273;BME280;7220;49.450;11.052;2023-02-18T19:06:09;98582.22;;;10.69;100.00
14273;BME280;7220;49.450;11.052;2023-02-18T19:10:09;98591.84;;;10.71;100.00
14273;BME280;7220;49.450;11.052;2023-02-18T19:14:12;98598.28;;;10.66;100.00
14273;BME280;7220;49.450;11.052;2023-02-18T19:18:18;98596.31;;;10.71;100.00
14273;BME280;7220;49.450;11.052;2023-02-18T19:22:19;98598.25;;;10.67;100.00
14273;BME280;7220;49.450;11.052;2023-02-18T19:26:19;98613.47;;;10.83;99.99
14273;BME280;7220;49.450;11.052;2023-02-18T19:30:22;98618.06;;;10.79;100.00
14273;BME280;7220;49.450;11.052;2023-02-18T19:34:23;98615.50;;;10.95;99.08
14273;BME280;7220;49.450;11.052;2023-02-18T19:38:23;98625.16;;;10.79;100.00
14273;BME280;7220;49.450;11.052;2023-02-18T19:42:23;98619.66;;;10.64;100.00
14273;BME280;7220;49.450;11.052;2023-02-18T19:46:24;98614.50;;;10.61;100.00
14273;BME280;7220;49.450;11.052;2023-02-18T19:50:26;98619.44;;;10.69;100.00
14273;BME280;7220;49.450;11.052;2023-02-18T19:54:26;98610.16;;;10.58;100.00
14273;BME280;7220;49.450;11.052;2023-02-18T19:58:27;98605.34;;;10.67;100.00
14273;BME280;7220;49.450;11.052;2023-02-18T20:02:28;98610.22;;;10.76;99.43
14273;BME280;7220;49.450;11.052;2023-02-18T20:06:29;98621.16;;;10.70;99.76
14273;BME280;7220;49.450;11.052;2023-02-18T20:10:29;98610.81;;;10.64;99.83
14273;BME280;7220;49.450;11.052;2023-02-18T20:14:30;98614.41;;;10.63;100.00
14273;BME280;7220;49.450;11.052;2023-02-18T20:18:31;98618.28;;;10.55;99.96
14273;BME280;7220;49.450;11.052;2023-02-18T20:22:31;98611.03;;;10.59;99.70
14273;BME280;7220;49.450;11.052;2023-02-18T20:26:31;98611.47;;;10.69;98.59
14273;BME280;7220;49.450;11.052;2023-02-18T20:30:32;98615.97;;;10.67;98.51
14273;BME280;7220;49.450;11.052;2023-02-18T20:34:32;98619.22;;;10.73;97.39
14273;BME280;7220;49.450;11.052;2023-02-18T20:38:36;98622.59;;;10.39;98.72
14273;BME280;7220;49.450;11.052;2023-02-18T20:42:36;98607.59;;;10.57;97.67
14273;BME280;7220;49.450;11.052;2023-02-18T20:46:38;98618.44;;;10.52;97.49
14273;BME280;7220;49.450;11.052;2023-02-18T20:50:38;98614.91;;;10.71;96.59
14273;BME280;7220;49.450;11.052;2023-02-18T20:54:38;98609.88;;;10.65;96.50
14273;BME280;7220;49.450;11.052;2023-02-18T20:58:39;98618.28;;;10.55;96.63
14273;BME280;7220;49.450;11.052;2023-02-18T21:02:40;98612.81;;;10.78;95.21
14273;BME280;7220;49.450;11.052;2023-02-18T21:06:41;98609.81;;;10.47;96.27
14273;BME280;7220;49.450;11.052;2023-02-18T21:10:41;98602.91;;;10.62;95.90
14273;BME280;7220;49.450;11.052;2023-02-18T21:14:41;98618.28;;;10.75;94.67
14273;BME280;7220;49.450;11.052;2023-02-18T21:18:42;98621.28;;;10.86;93.98
14273;BME280;7220;49.450;11.052;2023-02-18T21:22:42;98622.88;;;10.71;94.51
14273;BME280;7220;49.450;11.052;2023-02-18T21:26:42;98613.41;;;10.65;94.84
14273;BME280;7220;49.450;11.052;2023-02-18T21:30:44;98621.38;;;10.65;94.69
14273;BME280;7220;49.450;11.052;2023-02-18T21:34:44;98614.97;;;10.50;95.87
14273;BME280;7220;49.450;11.052;2023-02-18T21:38:50;98611.88;;;10.60;94.30
14273;BME280;7220;49.450;11.052;2023-02-18T21:42:50;98625.75;;;10.47;95.78
14273;BME280;7220;49.450;11.052;2023-02-18T21:46:50;98615.25;;;10.44;96.08
14273;BME280;7220;49.450;11.052;2023-02-18T21:50:51;98606.22;;;10.48;95.64
14273;BME280;7220;49.450;11.052;2023-02-18T21:54:51;98605.56;;;10.62;94.44
14273;BME280;7220;49.450;11.052;2023-02-18T21:58:52;98606.34;;;10.64;94.39
14273;BME280;7220;49.450;11.052;2023-02-18T22:02:53;98604.81;;;10.41;95.61
14273;BME280;7220;49.450;11.052;2023-02-18T22:06:53;98610.91;;;10.22;97.12
14273;BME280;7220;49.450;11.052;2023-02-18T22:10:54;98605.34;;;10.48;95.52
14273;BME280;7220;49.450;11.052;2023-02-18T22:14:54;98596.59;;;10.46;96.11
14273;BME280;7220;49.450;11.052;2023-02-18T22:18:55;98606.25;;;10.27;96.63
14273;BME280;7220;49.450;11.052;2023-02-18T22:22:56;98592.28;;;10.43;96.14
14273;BME280;7220;49.450;11.052;2023-02-18T22:26:57;98599.91;;;10.51;95.12
14273;BME280;7220;49.450;11.052;2023-02-18T22:31:08;98587.97;;;10.40;96.31
14273;BME280;7220;49.450;11.052;2023-02-18T22:35:08;98589.06;;;10.16;97.70
14273;BME280;7220;49.450;11.052;2023-02-18T22:39:09;98580.91;;;10.20;97.91
14273;BME280;7220;49.450;11.052;2023-02-18T22:43:10;98598.88;;;9.94;99.72
14273;BME280;7220;49.450;11.052;2023-02-18T22:47:10;98576.72;;;9.95;99.85
14273;BME280;7220;49.450;11.052;2023-02-18T22:51:17;98570.25;;;10.01;98.98
14273;BME280;7220;49.450;11.052;2023-02-18T22:55:17;98584.75;;;9.94;100.00
14273;BME280;7220;49.450;11.052;2023-02-18T22:59:18;98576.09;;;10.09;100.00
14273;BME280;7220;49.450;11.052;2023-02-18T23:03:18;98555.56;;;10.13;99.53
14273;BME280;7220;49.450;11.052;2023-02-18T23:07:18;98576.88;;;10.12;100.00
14273;BME280;7220;49.450;11.052;2023-02-18T23:11:23;98567.41;;;10.06;100.00